createdAt,value
2018-09-06T00:00:57.579Z,47.1
2018-09-06T00:05:56.078Z,47.1
2018-09-06T00:10:54.294Z,47.1
2018-09-06T00:15:52.859Z,47.1
2018-09-06T00:20:51.040Z,47.1
2018-09-06T00:25:49.422Z,47.1
2018-09-06T00:30:48.008Z,47.1
2018-09-06T00:35:46.541Z,47.1
2018-09-06T00:40:45.005Z,47.1
2018-09-06T00:45:43.093Z,47.1
2018-09-06T00:50:41.686Z,47.1
2018-09-06T00:55:40.270Z,47.1
2018-09-06T01:00:38.881Z,47.1
2018-09-06T01:05:37.494Z,47.2
2018-09-06T01:10:36.076Z,47.1
2018-09-06T01:15:34.399Z,47.2
2018-09-06T01:20:32.568Z,47.1
2018-09-06T01:25:31.241Z,47.2
2018-09-06T01:30:30.071Z,47.1
2018-09-06T01:35:28.415Z,47.2
2018-09-06T01:40:27.179Z,47.1
2018-09-06T01:45:25.613Z,47.2
2018-09-06T01:50:24.088Z,47.1
2018-09-06T01:55:22.221Z,47.2
2018-09-06T02:00:20.860Z,47.2
2018-09-06T02:05:19.156Z,47.1
2018-09-06T02:10:17.820Z,47.2
2018-09-06T02:15:16.294Z,47.2
2018-09-06T02:20:14.693Z,47.2
2018-09-06T02:25:13.281Z,47.2
2018-09-06T02:30:11.938Z,47.1
2018-09-06T02:35:10.598Z,47.2
2018-09-06T02:40:09.188Z,47.2
2018-09-06T02:45:07.732Z,47.2
2018-09-06T02:50:05.750Z,47.1
2018-09-06T02:55:04.272Z,47.2
2018-09-06T03:00:03.004Z,47.2
2018-09-06T03:05:01.575Z,47.2
2018-09-06T03:10:00.177Z,47.2
2018-09-06T03:14:58.599Z,47.2
2018-09-06T03:19:57.067Z,47.2
2018-09-06T03:24:55.856Z,47.2
2018-09-06T03:29:54.476Z,47.2
2018-09-06T03:34:52.918Z,47.2
2018-09-06T03:39:51.546Z,47.2
2018-09-06T03:44:50.232Z,47.2
2018-09-06T03:49:48.675Z,47.2
2018-09-06T03:54:47.162Z,47.3
2018-09-06T03:59:45.542Z,47.2
2018-09-06T04:04:43.976Z,47.3
2018-09-06T04:09:42.565Z,47.3
2018-09-06T04:14:41.277Z,47.2
2018-09-06T04:19:39.873Z,47.2
2018-09-06T04:24:38.374Z,47.3
2018-09-06T04:29:36.756Z,47.3
2018-09-06T04:34:35.086Z,47.3
2018-09-06T04:39:33.134Z,47.3
2018-09-06T04:44:31.312Z,47.3
2018-09-06T04:49:29.945Z,47.3
2018-09-06T04:54:28.470Z,47.3
2018-09-06T04:59:26.976Z,47.3
2018-09-06T05:04:25.727Z,47.3
2018-09-06T05:09:23.693Z,47.3
2018-09-06T05:14:22.087Z,47.4
2018-09-06T05:19:20.814Z,47.4
2018-09-06T05:24:19.053Z,47.4
2018-09-06T05:29:17.798Z,47.5
2018-09-06T05:34:16.290Z,47.5
2018-09-06T05:39:14.959Z,47.5
2018-09-06T05:44:13.337Z,47.5
2018-09-06T05:49:11.802Z,47.6
2018-09-06T05:54:10.397Z,47.6
2018-09-06T05:59:08.500Z,47.6
2018-09-06T06:04:07.477Z,47.6
2018-09-06T06:09:06.131Z,47.7
2018-09-06T06:14:04.749Z,47.7
2018-09-06T06:19:03.153Z,47.7
2018-09-06T06:24:01.861Z,47.8
2018-09-06T06:29:00.696Z,47.9
2018-09-06T06:39:03.536Z,48.1
2018-09-06T06:44:02.033Z,48.2
2018-09-06T06:49:00.691Z,48.3
2018-09-06T06:53:59.021Z,48.3
2018-09-06T06:58:57.402Z,48.4
2018-09-06T07:03:55.770Z,48.5
2018-09-06T07:08:54.590Z,48.6
2018-09-06T07:13:53.441Z,48.7
2018-09-06T07:18:52.008Z,48.8
2018-09-06T07:23:50.542Z,48.8
2018-09-06T07:28:49.126Z,48.9
2018-09-06T07:33:47.316Z,49
2018-09-06T07:38:45.964Z,49
2018-09-06T07:43:44.422Z,49.1
2018-09-06T07:48:43.156Z,49.1
2018-09-06T07:53:41.658Z,49.1
2018-09-06T07:58:40.403Z,49.2
2018-09-06T08:03:39.036Z,49.2
2018-09-06T08:08:37.387Z,49.2
2018-09-06T08:13:35.698Z,49.3
2018-09-06T08:18:34.237Z,49.3
2018-09-06T08:23:33.111Z,49.4
2018-09-06T08:28:31.800Z,49.4
2018-09-06T08:33:30.732Z,49.5
2018-09-06T08:38:29.483Z,49.5
2018-09-06T08:43:27.912Z,49.6
2018-09-06T08:48:26.486Z,49.6
2018-09-06T08:53:25.377Z,49.7
2018-09-06T08:58:24.071Z,49.7
2018-09-06T09:03:23.311Z,49.7
2018-09-06T09:08:22.252Z,49.7
2018-09-06T09:13:20.860Z,49.7
2018-09-06T09:18:19.848Z,49.7
2018-09-06T09:23:18.467Z,49.7
2018-09-06T09:28:17.869Z,49.7
2018-09-06T09:33:16.559Z,49.8
2018-09-06T09:38:15.172Z,49.9
2018-09-06T09:43:14.022Z,49.9
2018-09-06T09:48:12.707Z,49.9
2018-09-06T09:53:11.441Z,49.8
2018-09-06T09:58:10.353Z,49.8
2018-09-06T10:03:09.128Z,49.8
2018-09-06T10:08:07.830Z,49.8
2018-09-06T10:13:06.687Z,49.8
2018-09-06T10:18:05.556Z,49.8
2018-09-06T10:23:04.505Z,49.8
2018-09-06T10:28:02.846Z,49.8
2018-09-06T10:33:01.643Z,49.8
2018-09-06T10:38:00.552Z,49.8
2018-09-06T10:42:59.212Z,49.8
2018-09-06T10:47:58.367Z,49.8
2018-09-06T10:52:57.012Z,49.8
2018-09-06T10:57:55.865Z,49.8
2018-09-06T11:02:54.621Z,49.8
2018-09-06T11:07:53.662Z,49.8
2018-09-06T11:12:52.312Z,49.8
2018-09-06T11:17:51.097Z,49.7
2018-09-06T11:22:49.755Z,49.7
2018-09-06T11:27:48.619Z,49.7
2018-09-06T11:32:47.271Z,49.7
2018-09-06T11:37:46.319Z,49.7
2018-09-06T11:42:45.084Z,49.7
2018-09-06T11:47:44.072Z,49.8
2018-09-06T11:52:43.046Z,49.8
2018-09-06T11:57:41.545Z,49.7
2018-09-06T12:02:40.310Z,49.7
2018-09-06T12:07:39.054Z,49.6
2018-09-06T12:12:37.876Z,49.6
2018-09-06T12:17:36.328Z,49.6
2018-09-06T12:22:35.313Z,49.5
2018-09-06T12:27:33.950Z,49.5
2018-09-06T12:32:33.005Z,49.5
2018-09-06T12:37:31.614Z,49.4
2018-09-06T12:42:30.369Z,49.4
2018-09-06T12:47:28.701Z,49.4
2018-09-06T12:52:27.407Z,49.4
2018-09-06T12:57:26.136Z,49.4
2018-09-06T13:02:24.657Z,49.3
2018-09-06T13:07:23.516Z,49.3
2018-09-06T13:12:22.248Z,49.2
2018-09-06T13:17:20.952Z,49.2
2018-09-06T13:22:19.660Z,49.2
2018-09-06T13:27:18.512Z,49.2
2018-09-06T13:32:17.345Z,49.2
2018-09-06T13:37:15.998Z,49.2
2018-09-06T13:42:14.745Z,49.1
2018-09-06T13:47:13.792Z,49.1
2018-09-06T13:52:12.622Z,49.1
2018-09-06T13:57:11.218Z,49.1
2018-09-06T14:02:09.360Z,49.1
2018-09-06T14:07:08.099Z,49.1
2018-09-06T14:12:07.102Z,49.1
2018-09-06T14:17:05.785Z,49.1
2018-09-06T14:22:04.670Z,49
2018-09-06T14:27:03.360Z,49
2018-09-06T14:32:02.181Z,48.9
2018-09-06T14:37:01.006Z,48.9
2018-09-06T14:41:59.935Z,48.9
2018-09-06T14:46:58.771Z,48.8
2018-09-06T14:51:57.433Z,48.7
2018-09-06T14:56:56.259Z,48.6
2018-09-06T15:01:55.316Z,48.7
2018-09-06T15:06:54.285Z,48.7
2018-09-06T15:11:53.495Z,48.6
2018-09-06T15:16:52.269Z,48.6
2018-09-06T15:21:50.857Z,48.4
2018-09-06T15:26:50.635Z,48.4
2018-09-06T15:31:48.994Z,48.3
2018-09-06T15:36:47.560Z,48.2
2018-09-06T15:41:46.341Z,48.2
2018-09-06T15:46:45.035Z,48.1
2018-09-06T15:51:43.623Z,48
2018-09-06T15:56:42.414Z,48
2018-09-06T16:01:41.105Z,47.9
2018-09-06T16:06:39.877Z,47.9
2018-09-06T16:11:38.702Z,47.9
2018-09-06T16:16:37.633Z,47.9
2018-09-06T16:21:36.003Z,47.8
2018-09-06T16:26:34.763Z,47.8
2018-09-06T16:31:33.431Z,47.7
2018-09-06T16:36:32.280Z,47.7
2018-09-06T16:41:31.003Z,47.6
2018-09-06T16:46:29.728Z,47.6
2018-09-06T16:51:28.467Z,47.5
2018-09-06T16:56:27.331Z,47.5
2018-09-06T17:01:25.993Z,47.5
2018-09-06T17:06:24.750Z,47.4
2018-09-06T17:11:23.457Z,47.4
2018-09-06T17:16:22.214Z,47.4
2018-09-06T17:21:20.914Z,47.4
2018-09-06T17:26:19.389Z,47.4
2018-09-06T17:31:18.026Z,47.3
2018-09-06T17:36:16.620Z,47.3
2018-09-06T17:41:15.360Z,47.3
2018-09-06T17:46:13.945Z,47.2
2018-09-06T17:51:12.792Z,47.2
2018-09-06T17:56:11.491Z,47.2
2018-09-06T18:01:10.801Z,47.2
2018-09-06T18:06:09.335Z,47.2
2018-09-06T18:11:08.415Z,47.1
2018-09-06T18:16:06.891Z,47.1
2018-09-06T18:21:05.633Z,47.2
2018-09-06T18:26:04.323Z,47.2
2018-09-06T18:31:03.004Z,47.2
2018-09-06T18:36:01.535Z,47.1
2018-09-06T18:41:00.113Z,47.1
2018-09-06T18:45:58.711Z,47.1
2018-09-06T18:50:57.494Z,47.1
2018-09-06T18:55:56.190Z,47.1
2018-09-06T19:00:54.790Z,47
2018-09-06T19:05:53.652Z,47
2018-09-06T19:10:52.455Z,47
2018-09-06T19:15:51.152Z,47
2018-09-06T19:20:49.201Z,47
2018-09-06T19:25:47.903Z,47
2018-09-06T19:30:46.627Z,47.1
2018-09-06T19:35:45.647Z,47.1
2018-09-06T19:40:44.207Z,47.1
2018-09-06T19:45:42.848Z,47.1
2018-09-06T19:50:41.165Z,47.1
2018-09-06T19:55:39.623Z,47.1
2018-09-06T20:00:38.415Z,47.1
2018-09-06T20:05:37.057Z,47.1
2018-09-06T20:10:35.565Z,47.1
2018-09-06T20:15:34.110Z,47.1
2018-09-06T20:20:32.804Z,47.1
2018-09-06T20:25:31.505Z,47.1
2018-09-06T20:30:30.110Z,47.1
2018-09-06T20:35:28.696Z,47.1
2018-09-06T20:40:27.158Z,47
2018-09-06T20:45:25.771Z,47
2018-09-06T20:50:24.494Z,47.1
2018-09-06T20:55:23.087Z,47.1
2018-09-06T21:00:21.637Z,47.1
2018-09-06T21:05:20.396Z,47.1
2018-09-06T21:10:18.969Z,47.1
2018-09-06T21:15:17.629Z,47.2
2018-09-06T21:20:15.950Z,47.2
2018-09-06T21:25:14.461Z,47.2
2018-09-06T21:30:13.248Z,47.2
2018-09-06T21:35:11.755Z,47.2
2018-09-06T21:40:10.435Z,47.2
2018-09-06T21:45:08.978Z,47.2
2018-09-06T21:50:07.519Z,47.2
2018-09-06T21:55:06.324Z,47.2
2018-09-06T22:00:05.168Z,47.3
2018-09-06T22:05:03.678Z,47.3
2018-09-06T22:10:02.181Z,47.3
2018-09-06T22:15:00.786Z,47.3
2018-09-06T22:19:59.209Z,47.3
2018-09-06T22:24:57.411Z,47.3
2018-09-06T22:29:56.024Z,47.3
2018-09-06T22:34:54.651Z,47.3
2018-09-06T22:39:53.228Z,47.4
2018-09-06T22:44:51.556Z,47.4
2018-09-06T22:49:50.070Z,47.3
2018-09-06T22:54:48.874Z,47.4
2018-09-06T22:59:47.415Z,47.4
2018-09-06T23:04:46.112Z,47.4
2018-09-06T23:09:44.793Z,47.4
2018-09-06T23:14:43.402Z,47.4
2018-09-06T23:19:41.922Z,47.4
2018-09-06T23:24:40.391Z,47.4
2018-09-06T23:29:38.981Z,47.4
2018-09-06T23:34:37.751Z,47.4
2018-09-06T23:39:36.312Z,47.4
2018-09-06T23:44:34.881Z,47.4
2018-09-06T23:49:33.429Z,47.5
2018-09-06T23:54:32.239Z,47.4
2018-09-06T23:59:30.841Z,47.4
